Time;durP1;ratioP1;P1;durP2;ratioP2;P2;SDS_P1;SDS_P2;PMS_P1;PMS_P2;Temp;Humidity;BMP_temperature;BMP_pressure;BME280_temperature;BME280_humidity;BME280_pressure;Samples;Min_cycle;Max_cycle;Signal;HPM_P1;HPM_P2
2023/12/04 00:00:40;;;;;;;35.53;15.10;;;;;;;;;;5093788;28;20039;-66
2023/12/04 00:03:07;;;;;;;37.47;14.18;;;;;;;;;;5096413;28;20147;-66
2023/12/04 00:05:36;;;;;;;40.50;14.75;;;;;;;;;;5100704;28;20043;-65
2023/12/04 00:08:03;;;;;;;34.63;14.85;;;;;;;;;;5105315;28;20048;-66
2023/12/04 00:10:30;;;;;;;36.05;14.43;;;;;;;;;;5102499;28;20036;-66
2023/12/04 00:12:58;;;;;;;36.30;13.75;;;;;;;;;;5100007;28;20398;-65
2023/12/04 00:15:25;;;;;;;37.55;14.57;;;;;;;;;;5102960;28;20051;-65
2023/12/04 00:17:53;;;;;;;39.08;14.38;;;;;;;;;;5099347;28;20056;-66
2023/12/04 00:20:21;;;;;;;35.20;14.60;;;;;;;;;;5097058;28;20511;-66
2023/12/04 00:22:50;;;;;;;35.63;14.82;;;;;;;;;;5102380;28;20052;-66
2023/12/04 00:25:17;;;;;;;39.05;15.23;;;;;;;;;;5097319;28;20119;-64
2023/12/04 00:27:44;;;;;;;35.20;14.57;;;;;;;;;;5106315;28;20054;-65
2023/12/04 00:30:11;;;;;;;39.88;15.82;;;;;;;;;;5105781;28;20058;-65
2023/12/04 00:32:39;;;;;;;34.38;14.35;;;;;;;;;;5105587;28;20073;-66
2023/12/04 00:35:06;;;;;;;35.40;13.70;;;;;;;;;;5102235;28;20135;-65
2023/12/04 00:37:37;;;;;;;35.63;15.07;;;;;;;;;;5104927;28;20043;-65
2023/12/04 00:40:07;;;;;;;40.33;15.98;;;;;;;;;;5101121;28;20097;-65
2023/12/04 00:42:34;;;;;;;31.13;14.00;;;;;;;;;;5108082;28;20046;-64
2023/12/04 00:45:02;;;;;;;33.92;14.70;;;;;;;;;;5102687;28;20055;-65
2023/12/04 00:47:29;;;;;;;37.28;14.57;;;;;;;;;;5085961;28;20527;-66
2023/12/04 00:49:56;;;;;;;36.00;15.02;;;;;;;;;;5096350;28;20127;-64
2023/12/04 00:52:23;;;;;;;37.28;14.57;;;;;;;;;;5107420;28;20048;-66
2023/12/04 00:54:51;;;;;;;36.75;14.95;;;;;;;;;;5087793;28;20486;-66
2023/12/04 00:57:19;;;;;;;35.45;14.45;;;;;;;;;;5106735;28;20051;-65
2023/12/04 00:59:47;;;;;;;38.47;14.88;;;;;;;;;;5105384;28;20052;-65
2023/12/04 01:02:14;;;;;;;40.05;15.02;;;;;;;;;;5103868;28;20487;-66
2023/12/04 01:04:42;;;;;;;35.65;14.70;;;;;;;;;;5105021;28;20054;-66
2023/12/04 01:07:09;;;;;;;40.92;14.77;;;;;;;;;;5093296;28;20480;-65
2023/12/04 01:09:37;;;;;;;38.83;15.27;;;;;;;;;;5109538;28;20123;-65
2023/12/04 01:12:04;;;;;;;37.70;14.18;;;;;;;;;;5090905;28;20051;-66
2023/12/04 01:14:33;;;;;;;38.22;14.65;;;;;;;;;;5105066;28;20047;-65
2023/12/04 01:17:01;;;;;;;36.97;15.50;;;;;;;;;;5101696;28;20047;-66
2023/12/04 01:19:28;;;;;;;35.50;14.63;;;;;;;;;;5108411;28;20123;-66
2023/12/04 01:21:56;;;;;;;40.58;14.50;;;;;;;;;;5108475;28;20655;-66
2023/12/04 01:24:23;;;;;;;34.53;14.23;;;;;;;;;;5109018;28;20047;-66
2023/12/04 01:26:49;;;;;;;41.08;15.73;;;;;;;;;;5109854;28;20047;-65
2023/12/04 01:29:16;;;;;;;36.58;14.93;;;;;;;;;;5086601;28;20749;-65
2023/12/04 01:31:45;;;;;;;37.03;14.85;;;;;;;;;;5109573;28;20520;-66
2023/12/04 01:34:12;;;;;;;43.95;15.43;;;;;;;;;;5105454;28;20482;-65
2023/12/04 01:36:41;;;;;;;37.17;14.48;;;;;;;;;;5088259;28;20047;-66
2023/12/04 01:39:09;;;;;;;37.00;14.65;;;;;;;;;;5108512;28;20079;-65
2023/12/04 01:41:36;;;;;;;41.15;15.68;;;;;;;;;;5101344;28;20505;-65
2023/12/04 01:44:03;;;;;;;39.05;15.30;;;;;;;;;;5090078;28;20054;-64
2023/12/04 01:46:31;;;;;;;39.33;15.65;;;;;;;;;;5107179;28;20605;-65
2023/12/04 01:49:00;;;;;;;39.58;15.35;;;;;;;;;;5102124;28;20051;-64
2023/12/04 01:51:28;;;;;;;41.78;15.18;;;;;;;;;;5104422;28;20044;-65
2023/12/04 01:53:56;;;;;;;41.10;16.25;;;;;;;;;;5088146;28;20058;-65
2023/12/04 01:56:23;;;;;;;42.53;16.05;;;;;;;;;;5101245;28;20044;-66
2023/12/04 01:58:50;;;;;;;40.03;15.55;;;;;;;;;;5104631;28;20074;-66
2023/12/04 02:01:18;;;;;;;36.72;14.98;;;;;;;;;;5105877;28;20044;-65
2023/12/04 02:03:45;;;;;;;37.97;15.45;;;;;;;;;;5108617;28;20060;-65
2023/12/04 02:06:14;;;;;;;41.78;16.15;;;;;;;;;;5110282;28;20540;-65
2023/12/04 02:08:42;;;;;;;43.08;15.68;;;;;;;;;;5089278;28;20159;-64
2023/12/04 02:11:09;;;;;;;48.00;17.35;;;;;;;;;;5101272;28;20475;-66
2023/12/04 02:13:36;;;;;;;44.83;15.80;;;;;;;;;;5088150;28;20371;-65
2023/12/04 02:16:06;;;;;;;43.05;15.77;;;;;;;;;;5107822;27;20047;-65
2023/12/04 02:18:34;;;;;;;42.22;16.85;;;;;;;;;;5102600;27;20087;-64
2023/12/04 02:21:02;;;;;;;38.75;15.55;;;;;;;;;;5108237;28;20368;-64
2023/12/04 02:23:30;;;;;;;44.42;17.08;;;;;;;;;;5104417;28;20043;-65
2023/12/04 02:26:00;;;;;;;43.78;15.63;;;;;;;;;;5107052;28;20055;-65
2023/12/04 02:28:29;;;;;;;41.20;16.25;;;;;;;;;;5099380;28;20040;-64
2023/12/04 02:30:57;;;;;;;45.03;16.98;;;;;;;;;;5109197;28;20589;-65
2023/12/04 02:33:25;;;;;;;48.30;17.98;;;;;;;;;;5104700;28;20070;-63
2023/12/04 02:35:53;;;;;;;52.92;18.00;;;;;;;;;;5106022;28;20534;-64
2023/12/04 02:38:20;;;;;;;52.25;19.48;;;;;;;;;;5104793;28;20051;-65
2023/12/04 02:40:47;;;;;;;43.33;17.13;;;;;;;;;;5095931;28;20052;-64
2023/12/04 02:43:16;;;;;;;42.10;16.70;;;;;;;;;;5106718;28;20051;-64
2023/12/04 02:45:43;;;;;;;42.67;16.40;;;;;;;;;;5107976;28;20047;-64
2023/12/04 02:48:10;;;;;;;40.45;16.48;;;;;;;;;;5107310;28;20525;-64
2023/12/04 02:50:38;;;;;;;48.97;17.50;;;;;;;;;;5103928;28;20051;-64
2023/12/04 02:53:05;;;;;;;45.60;16.92;;;;;;;;;;5102463;28;20082;-64
2023/12/04 02:55:32;;;;;;;42.05;16.77;;;;;;;;;;5102692;28;20059;-65
2023/12/04 02:57:59;;;;;;;47.47;17.55;;;;;;;;;;5099923;28;20839;-65
2023/12/04 03:00:28;;;;;;;53.58;17.70;;;;;;;;;;5088634;28;20372;-64
2023/12/04 03:02:55;;;;;;;42.60;16.10;;;;;;;;;;5096332;28;20056;-64
2023/12/04 03:05:23;;;;;;;45.10;16.50;;;;;;;;;;5095279;28;20044;-64
2023/12/04 03:07:50;;;;;;;50.42;16.60;;;;;;;;;;5106042;28;20047;-63
2023/12/04 03:10:17;;;;;;;45.08;16.83;;;;;;;;;;5102298;28;20059;-64
2023/12/04 03:12:44;;;;;;;44.88;16.70;;;;;;;;;;5107753;27;20040;-64
2023/12/04 03:15:12;;;;;;;46.47;16.17;;;;;;;;;;5107897;28;20047;-64
2023/12/04 03:17:41;;;;;;;46.80;16.58;;;;;;;;;;5100708;28;20059;-64
2023/12/04 03:20:09;;;;;;;50.50;16.73;;;;;;;;;;5105357;28;20101;-65
2023/12/04 03:22:36;;;;;;;48.45;16.40;;;;;;;;;;5084354;28;20127;-64
2023/12/04 03:25:04;;;;;;;47.67;16.80;;;;;;;;;;5089326;28;20047;-64
2023/12/04 03:27:31;;;;;;;50.97;17.85;;;;;;;;;;5106438;28;20178;-64
2023/12/04 03:29:58;;;;;;;43.30;16.38;;;;;;;;;;5106069;28;20048;-64
2023/12/04 03:32:26;;;;;;;39.90;16.02;;;;;;;;;;5105559;28;20050;-63
2023/12/04 03:34:54;;;;;;;45.55;15.65;;;;;;;;;;5087754;28;20059;-64
2023/12/04 03:37:21;;;;;;;40.10;15.52;;;;;;;;;;5093736;28;20055;-64
2023/12/04 03:39:49;;;;;;;42.88;17.17;;;;;;;;;;5088722;28;20048;-64
2023/12/04 03:42:16;;;;;;;41.17;15.40;;;;;;;;;;5107893;28;20046;-63
2023/12/04 03:44:43;;;;;;;44.60;15.32;;;;;;;;;;5106714;28;20051;-63
2023/12/04 03:47:11;;;;;;;40.65;16.10;;;;;;;;;;5098355;28;20092;-63
2023/12/04 03:49:38;;;;;;;42.55;15.80;;;;;;;;;;5103614;28;20044;-63
2023/12/04 03:52:07;;;;;;;45.47;14.85;;;;;;;;;;5088157;28;20047;-64
2023/12/04 03:54:34;;;;;;;44.05;16.00;;;;;;;;;;5102429;28;20044;-63
2023/12/04 03:57:02;;;;;;;39.20;15.60;;;;;;;;;;5104929;28;20043;-64
2023/12/04 03:59:29;;;;;;;40.05;15.15;;;;;;;;;;5105774;28;20402;-64
2023/12/04 04:01:56;;;;;;;41.22;16.08;;;;;;;;;;5104929;28;20044;-64
2023/12/04 04:04:24;;;;;;;37.40;15.20;;;;;;;;;;5107602;28;20051;-63
2023/12/04 04:06:51;;;;;;;46.03;15.77;;;;;;;;;;5110884;28;20051;-65
2023/12/04 04:09:20;;;;;;;43.03;15.32;;;;;;;;;;5109007;28;20043;-64
2023/12/04 04:11:47;;;;;;;41.95;15.52;;;;;;;;;;5109557;28;20051;-64
2023/12/04 04:14:14;;;;;;;43.28;15.10;;;;;;;;;;5108515;28;20059;-63
2023/12/04 04:16:42;;;;;;;35.92;13.45;;;;;;;;;;5107262;28;20055;-64
2023/12/04 04:19:09;;;;;;;42.03;15.27;;;;;;;;;;5100445;28;20082;-64
2023/12/04 04:21:40;;;;;;;47.25;15.10;;;;;;;;;;5092538;28;20047;-64
2023/12/04 04:24:08;;;;;;;37.08;13.88;;;;;;;;;;5106387;28;20486;-64
2023/12/04 04:26:36;;;;;;;46.35;15.52;;;;;;;;;;5109154;28;20510;-64
2023/12/04 04:29:03;;;;;;;41.03;15.25;;;;;;;;;;5110927;28;20051;-64
2023/12/04 04:31:31;;;;;;;42.03;15.60;;;;;;;;;;5106360;28;20054;-64
2023/12/04 04:33:58;;;;;;;38.75;14.38;;;;;;;;;;5109476;28;20105;-65
2023/12/04 04:36:25;;;;;;;43.72;14.80;;;;;;;;;;5109055;28;20046;-63
2023/12/04 04:38:52;;;;;;;38.80;15.02;;;;;;;;;;5105677;28;20063;-63
2023/12/04 04:41:20;;;;;;;44.33;14.90;;;;;;;;;;5108881;28;20071;-64
2023/12/04 04:43:48;;;;;;;36.88;13.43;;;;;;;;;;5105667;28;20454;-64
2023/12/04 04:46:15;;;;;;;39.88;13.75;;;;;;;;;;5108921;28;20052;-64
2023/12/04 04:48:43;;;;;;;42.60;14.60;;;;;;;;;;5106878;28;20052;-64
2023/12/04 04:51:10;;;;;;;36.08;14.18;;;;;;;;;;5105845;28;20076;-64
2023/12/04 04:53:37;;;;;;;42.05;14.48;;;;;;;;;;5105898;28;20376;-64
2023/12/04 04:56:05;;;;;;;35.60;12.75;;;;;;;;;;5106618;28;20043;-64
2023/12/04 04:58:32;;;;;;;35.80;13.10;;;;;;;;;;5099512;28;20047;-64
2023/12/04 05:01:01;;;;;;;34.83;12.93;;;;;;;;;;5107666;28;20486;-64
2023/12/04 05:03:28;;;;;;;39.90;12.65;;;;;;;;;;5106183;28;20410;-63
2023/12/04 05:05:55;;;;;;;39.00;13.77;;;;;;;;;;5105598;28;20054;-64
2023/12/04 05:08:22;;;;;;;37.72;13.38;;;;;;;;;;5100640;28;20055;-64
2023/12/04 05:10:49;;;;;;;37.33;13.55;;;;;;;;;;5110632;28;20497;-64
2023/12/04 05:13:17;;;;;;;38.78;13.85;;;;;;;;;;5105862;28;20470;-63
2023/12/04 05:15:44;;;;;;;37.80;13.32;;;;;;;;;;5104066;28;20044;-64
2023/12/04 05:18:13;;;;;;;34.05;13.57;;;;;;;;;;5098181;28;20374;-63
2023/12/04 05:20:40;;;;;;;38.70;12.88;;;;;;;;;;5106995;28;20715;-64
2023/12/04 05:23:07;;;;;;;33.10;12.82;;;;;;;;;;5101460;28;20059;-64
2023/12/04 05:25:34;;;;;;;37.60;13.27;;;;;;;;;;5108558;28;20503;-63
2023/12/04 05:28:01;;;;;;;32.92;11.48;;;;;;;;;;5102678;28;20566;-64
2023/12/04 05:30:29;;;;;;;32.17;13.20;;;;;;;;;;5101797;28;20052;-64
2023/12/04 05:32:56;;;;;;;33.50;12.20;;;;;;;;;;5100129;28;20052;-63
2023/12/04 05:35:24;;;;;;;33.65;12.75;;;;;;;;;;5107998;28;20040;-64
2023/12/04 05:37:52;;;;;;;36.67;13.38;;;;;;;;;;5106556;28;20043;-63
2023/12/04 05:40:19;;;;;;;33.35;12.35;;;;;;;;;;5098505;28;20573;-63
2023/12/04 05:42:46;;;;;;;33.20;11.95;;;;;;;;;;5099161;28;20066;-64
2023/12/04 05:45:14;;;;;;;33.75;12.40;;;;;;;;;;5108027;28;20394;-64
2023/12/04 05:47:41;;;;;;;31.67;12.40;;;;;;;;;;5110168;28;20467;-64
2023/12/04 05:50:09;;;;;;;34.55;11.40;;;;;;;;;;5107655;28;20089;-64
2023/12/04 05:52:37;;;;;;;33.35;13.32;;;;;;;;;;5108257;28;20047;-64
2023/12/04 05:55:05;;;;;;;31.25;11.82;;;;;;;;;;5104530;28;20047;-64
2023/12/04 05:57:32;;;;;;;29.33;11.52;;;;;;;;;;5098973;28;20132;-65
2023/12/04 06:00:00;;;;;;;32.25;11.88;;;;;;;;;;5107256;28;20063;-64
2023/12/04 06:02:29;;;;;;;32.72;11.82;;;;;;;;;;5103599;28;20376;-63
2023/12/04 06:04:57;;;;;;;28.20;10.80;;;;;;;;;;5100830;28;20543;-63
2023/12/04 06:07:24;;;;;;;30.10;12.23;;;;;;;;;;5100606;28;20043;-63
2023/12/04 06:09:53;;;;;;;28.95;11.52;;;;;;;;;;5101033;28;20052;-63
2023/12/04 06:12:20;;;;;;;28.48;11.15;;;;;;;;;;5104625;28;20075;-64
2023/12/04 06:14:47;;;;;;;28.63;10.93;;;;;;;;;;5107384;28;20483;-63
2023/12/04 06:17:15;;;;;;;26.75;11.23;;;;;;;;;;5093540;28;20044;-63
2023/12/04 06:19:42;;;;;;;31.67;11.18;;;;;;;;;;5100419;28;20051;-64
2023/12/04 06:22:09;;;;;;;25.27;10.70;;;;;;;;;;5103551;28;20043;-64
2023/12/04 06:24:37;;;;;;;25.50;11.02;;;;;;;;;;5097483;28;20047;-64
2023/12/04 06:27:08;;;;;;;25.60;10.23;;;;;;;;;;5107504;28;20051;-64
2023/12/04 06:29:36;;;;;;;26.48;11.00;;;;;;;;;;5104679;28;20044;-64
2023/12/04 06:32:04;;;;;;;28.52;10.95;;;;;;;;;;5104142;28;20133;-65
2023/12/04 06:34:31;;;;;;;23.65;10.20;;;;;;;;;;5102424;28;20048;-64
2023/12/04 06:36:59;;;;;;;22.98;9.73;;;;;;;;;;5095219;28;20048;-64
2023/12/04 06:39:29;;;;;;;29.83;10.32;;;;;;;;;;5102445;28;20075;-63
2023/12/04 06:41:57;;;;;;;27.30;10.15;;;;;;;;;;5091076;28;20044;-64
2023/12/04 06:44:26;;;;;;;28.25;10.48;;;;;;;;;;5105852;28;20379;-64
2023/12/04 06:46:53;;;;;;;26.83;10.23;;;;;;;;;;5107492;28;20051;-64
2023/12/04 06:49:21;;;;;;;25.60;10.35;;;;;;;;;;5105069;28;20487;-64
2023/12/04 06:51:48;;;;;;;22.40;9.98;;;;;;;;;;5101712;28;20059;-64
2023/12/04 06:54:17;;;;;;;22.85;10.15;;;;;;;;;;5105276;28;20106;-64
2023/12/04 06:56:45;;;;;;;28.63;10.50;;;;;;;;;;5104079;28;20055;-64
2023/12/04 06:59:12;;;;;;;26.60;10.57;;;;;;;;;;5102470;28;20047;-64
2023/12/04 07:01:40;;;;;;;23.63;10.43;;;;;;;;;;5100121;28;20092;-64
2023/12/04 07:04:09;;;;;;;28.73;10.70;;;;;;;;;;5106891;28;20047;-65
2023/12/04 07:06:37;;;;;;;25.60;9.93;;;;;;;;;;5101116;28;20142;-65
2023/12/04 07:09:04;;;;;;;22.13;9.60;;;;;;;;;;5108072;28;20044;-65
2023/12/04 07:11:32;;;;;;;27.20;9.95;;;;;;;;;;5106784;28;20043;-65
2023/12/04 07:13:59;;;;;;;21.30;9.93;;;;;;;;;;5106900;28;20073;-65
2023/12/04 07:16:26;;;;;;;21.38;9.82;;;;;;;;;;5105461;28;20066;-65
2023/12/04 07:18:55;;;;;;;26.48;9.85;;;;;;;;;;5101301;28;20055;-65
2023/12/04 07:21:22;;;;;;;22.85;10.15;;;;;;;;;;5096480;28;20040;-65
2023/12/04 07:23:49;;;;;;;26.23;10.32;;;;;;;;;;5099926;28;20048;-65
2023/12/04 07:26:17;;;;;;;23.92;9.88;;;;;;;;;;5086478;28;20044;-65
2023/12/04 07:28:44;;;;;;;24.75;10.13;;;;;;;;;;5105724;28;20052;-65
2023/12/04 07:31:11;;;;;;;26.70;10.32;;;;;;;;;;5107074;28;20058;-65
2023/12/04 07:33:38;;;;;;;22.88;9.18;;;;;;;;;;5103358;28;20475;-65
2023/12/04 07:36:07;;;;;;;21.42;9.02;;;;;;;;;;5104805;28;20052;-65
2023/12/04 07:38:35;;;;;;;21.80;8.85;;;;;;;;;;5104694;28;20142;-65
2023/12/04 07:41:02;;;;;;;22.83;9.23;;;;;;;;;;5106972;28;20083;-64
2023/12/04 07:43:29;;;;;;;23.67;9.38;;;;;;;;;;5102610;28;20730;-65
2023/12/04 07:45:57;;;;;;;21.73;8.82;;;;;;;;;;5104461;28;20048;-64
2023/12/04 07:48:24;;;;;;;21.67;8.68;;;;;;;;;;5079666;28;20060;-65
2023/12/04 07:50:52;;;;;;;21.05;8.75;;;;;;;;;;5100993;28;20055;-65
2023/12/04 07:53:20;;;;;;;19.58;8.82;;;;;;;;;;5102734;28;20040;-65
2023/12/04 07:55:48;;;;;;;21.67;8.45;;;;;;;;;;5099124;28;20048;-64
2023/12/04 07:58:15;;;;;;;21.58;9.60;;;;;;;;;;5104244;28;20536;-64
2023/12/04 08:00:43;;;;;;;21.98;8.50;;;;;;;;;;5104302;28;20467;-65
2023/12/04 08:03:10;;;;;;;18.25;8.35;;;;;;;;;;5099341;28;20048;-65
2023/12/04 08:05:38;;;;;;;21.67;9.15;;;;;;;;;;5102766;28;20048;-65
2023/12/04 08:08:05;;;;;;;22.55;8.85;;;;;;;;;;5107112;28;20048;-65
2023/12/04 08:10:34;;;;;;;19.58;8.50;;;;;;;;;;5104700;28;20142;-65
2023/12/04 08:13:01;;;;;;;17.08;8.00;;;;;;;;;;5106289;28;20048;-65
2023/12/04 08:15:29;;;;;;;17.92;8.25;;;;;;;;;;5100936;28;20047;-65
2023/12/04 08:17:57;;;;;;;21.65;8.73;;;;;;;;;;5100852;28;20087;-65
2023/12/04 08:20:25;;;;;;;16.60;8.18;;;;;;;;;;5101413;28;20043;-65
2023/12/04 08:22:52;;;;;;;16.27;7.68;;;;;;;;;;5094929;28;20044;-65
2023/12/04 08:25:19;;;;;;;21.17;9.07;;;;;;;;;;5099163;28;20052;-65
2023/12/04 08:27:49;;;;;;;15.13;7.35;;;;;;;;;;5098194;28;20066;-65
2023/12/04 08:30:16;;;;;;;19.10;8.10;;;;;;;;;;5083300;28;20143;-65
2023/12/04 08:32:44;;;;;;;20.02;7.55;;;;;;;;;;5099675;28;20048;-65
2023/12/04 08:35:11;;;;;;;17.23;7.75;;;;;;;;;;5084945;28;20048;-65
2023/12/04 08:37:39;;;;;;;14.40;6.93;;;;;;;;;;5096064;28;20051;-65
2023/12/04 08:40:08;;;;;;;16.80;7.85;;;;;;;;;;5097171;28;20120;-66
2023/12/04 08:42:35;;;;;;;18.67;7.45;;;;;;;;;;5098133;28;20047;-66
2023/12/04 08:45:05;;;;;;;17.75;7.88;;;;;;;;;;5100342;28;20052;-65
2023/12/04 08:47:33;;;;;;;17.63;7.35;;;;;;;;;;5101983;28;21480;-65
2023/12/04 08:50:01;;;;;;;12.75;6.57;;;;;;;;;;5100998;28;20044;-66
2023/12/04 08:52:29;;;;;;;13.88;6.80;;;;;;;;;;5105990;28;20044;-66
2023/12/04 08:54:56;;;;;;;15.90;6.85;;;;;;;;;;5104393;28;20071;-65
2023/12/04 08:57:23;;;;;;;14.00;6.35;;;;;;;;;;5108319;28;20047;-66
2023/12/04 08:59:50;;;;;;;14.27;6.18;;;;;;;;;;5100631;28;20570;-66
2023/12/04 09:02:19;;;;;;;16.25;6.38;;;;;;;;;;5098939;28;20508;-65
2023/12/04 09:04:46;;;;;;;20.23;5.85;;;;;;;;;;5102309;28;20047;-65
2023/12/04 09:07:14;;;;;;;12.30;6.45;;;;;;;;;;5100585;28;20083;-65
2023/12/04 09:09:41;;;;;;;13.68;5.88;;;;;;;;;;5098025;28;20054;-66
2023/12/04 09:12:09;;;;;;;12.85;5.55;;;;;;;;;;5098539;28;20131;-65
2023/12/04 09:14:36;;;;;;;12.57;5.97;;;;;;;;;;5095843;28;20053;-66
2023/12/04 09:17:04;;;;;;;14.20;5.70;;;;;;;;;;5103575;28;20082;-65
2023/12/04 09:19:33;;;;;;;13.50;5.78;;;;;;;;;;5104667;28;20096;-65
2023/12/04 09:22:00;;;;;;;13.02;5.82;;;;;;;;;;5093299;28;20051;-65
2023/12/04 09:24:28;;;;;;;13.02;5.72;;;;;;;;;;5079877;28;20047;-66
2023/12/04 09:26:56;;;;;;;15.18;5.97;;;;;;;;;;5102301;28;20040;-66
2023/12/04 09:29:23;;;;;;;11.15;4.82;;;;;;;;;;5098356;28;20040;-66
2023/12/04 09:31:51;;;;;;;11.70;5.43;;;;;;;;;;5101052;28;20056;-66
2023/12/04 09:34:20;;;;;;;10.77;5.07;;;;;;;;;;5108477;28;20079;-65
2023/12/04 09:36:49;;;;;;;9.48;4.63;;;;;;;;;;5104410;28;20051;-65
2023/12/04 09:39:16;;;;;;;9.20;4.28;;;;;;;;;;5106172;28;20513;-66
2023/12/04 09:41:44;;;;;;;10.43;4.82;;;;;;;;;;5103379;28;20048;-66
2023/12/04 09:44:12;;;;;;;9.27;4.80;;;;;;;;;;5106039;28;20051;-65
2023/12/04 09:46:39;;;;;;;9.95;4.80;;;;;;;;;;5106223;27;20081;-66
2023/12/04 09:49:07;;;;;;;10.70;4.85;;;;;;;;;;5105574;28;20060;-66
2023/12/04 09:51:34;;;;;;;13.02;5.00;;;;;;;;;;5100564;28;20075;-66
2023/12/04 09:54:04;;;;;;;12.00;4.30;;;;;;;;;;5102907;28;20086;-66
2023/12/04 09:56:33;;;;;;;13.10;5.00;;;;;;;;;;5102101;28;20533;-66
2023/12/04 09:59:01;;;;;;;11.35;4.70;;;;;;;;;;5102062;28;20051;-66
2023/12/04 10:01:29;;;;;;;11.80;4.72;;;;;;;;;;5099663;28;20586;-66
2023/12/04 10:03:58;;;;;;;8.75;4.03;;;;;;;;;;5090170;28;20063;-66
2023/12/04 10:06:28;;;;;;;10.00;5.13;;;;;;;;;;5107193;28;20461;-66
2023/12/04 10:08:58;;;;;;;8.05;4.13;;;;;;;;;;5095207;28;20524;-65
2023/12/04 10:11:27;;;;;;;10.27;4.53;;;;;;;;;;5103021;28;20048;-66
2023/12/04 10:13:55;;;;;;;11.55;4.75;;;;;;;;;;5108316;28;20055;-65
2023/12/04 10:16:35;;;;;;;10.20;4.40;;;;;;;;;;5098952;28;20402;-66
2023/12/04 10:19:16;;;;;;;11.90;4.65;;;;;;;;;;5099000;28;20090;-66
2023/12/04 10:21:43;;;;;;;10.82;4.93;;;;;;;;;;5100347;28;20051;-66
2023/12/04 10:24:11;;;;;;;9.15;4.20;;;;;;;;;;5098148;28;20067;-66
2023/12/04 10:26:39;;;;;;;9.63;4.35;;;;;;;;;;5108437;28;20051;-65
2023/12/04 10:29:07;;;;;;;8.93;4.07;;;;;;;;;;5098270;28;20131;-66
2023/12/04 10:31:34;;;;;;;8.50;3.60;;;;;;;;;;5107685;28;20122;-66
2023/12/04 10:34:02;;;;;;;10.88;4.22;;;;;;;;;;5097885;28;20043;-66
2023/12/04 10:36:29;;;;;;;8.70;4.30;;;;;;;;;;5097891;28;20044;-65
2023/12/04 10:39:00;;;;;;;10.15;4.15;;;;;;;;;;5102679;28;20498;-66
2023/12/04 10:41:27;;;;;;;7.43;3.63;;;;;;;;;;5087345;28;20068;-66
2023/12/04 10:43:58;;;;;;;8.18;3.78;;;;;;;;;;5102469;28;20495;-66
2023/12/04 10:46:26;;;;;;;7.57;3.88;;;;;;;;;;5108253;28;20051;-66
2023/12/04 10:48:54;;;;;;;8.63;3.78;;;;;;;;;;5102776;28;20051;-66
2023/12/04 10:51:22;;;;;;;7.25;3.67;;;;;;;;;;5082202;28;20044;-66
2023/12/04 10:53:50;;;;;;;8.43;3.90;;;;;;;;;;5102105;28;20048;-66
2023/12/04 10:56:20;;;;;;;7.13;3.63;;;;;;;;;;5102959;28;20067;-66
2023/12/04 10:58:50;;;;;;;7.50;3.60;;;;;;;;;;5100054;28;20048;-66
2023/12/04 11:01:21;;;;;;;7.93;3.78;;;;;;;;;;5105869;28;20086;-66
2023/12/04 11:03:49;;;;;;;7.50;3.72;;;;;;;;;;5104087;28;20052;-65
2023/12/04 11:06:18;;;;;;;9.98;3.80;;;;;;;;;;5104372;28;20690;-66
2023/12/04 11:08:50;;;;;;;7.55;3.53;;;;;;;;;;5104144;28;20044;-66
2023/12/04 11:11:22;;;;;;;10.50;4.03;;;;;;;;;;5103905;28;20039;-66
2023/12/04 11:13:50;;;;;;;7.35;3.45;;;;;;;;;;5087872;28;20472;-66
2023/12/04 11:16:22;;;;;;;8.55;4.18;;;;;;;;;;5107165;28;20043;-65
2023/12/04 11:18:52;;;;;;;8.52;3.70;;;;;;;;;;5103464;28;20058;-66
2023/12/04 11:21:21;;;;;;;9.93;3.80;;;;;;;;;;5074008;28;20055;-65
2023/12/04 11:23:49;;;;;;;9.43;3.60;;;;;;;;;;5103880;28;20052;-66
2023/12/04 11:26:17;;;;;;;7.93;4.05;;;;;;;;;;5101398;28;20044;-66
2023/12/04 11:28:45;;;;;;;8.10;4.03;;;;;;;;;;5096615;28;20043;-66
2023/12/04 11:31:12;;;;;;;9.15;4.18;;;;;;;;;;5093539;28;20410;-66
2023/12/04 11:33:40;;;;;;;9.68;4.10;;;;;;;;;;5104146;28;20090;-66
2023/12/04 11:36:09;;;;;;;7.70;4.00;;;;;;;;;;5097514;28;20054;-66
2023/12/04 11:38:37;;;;;;;6.82;3.72;;;;;;;;;;5077848;28;20567;-66
2023/12/04 11:41:16;;;;;;;7.97;3.80;;;;;;;;;;5106488;28;20044;-66
2023/12/04 11:43:44;;;;;;;9.13;4.05;;;;;;;;;;5102370;28;20036;-66
2023/12/04 11:46:11;;;;;;;7.20;3.72;;;;;;;;;;5101712;28;20090;-66
2023/12/04 11:48:39;;;;;;;8.48;4.32;;;;;;;;;;5098451;28;20056;-66
2023/12/04 11:51:17;;;;;;;8.30;4.22;;;;;;;;;;5096220;28;20137;-66
2023/12/04 11:53:45;;;;;;;7.88;3.80;;;;;;;;;;5103714;28;20138;-66
2023/12/04 11:56:13;;;;;;;11.68;4.22;;;;;;;;;;5095924;28;20043;-66
2023/12/04 11:58:44;;;;;;;11.50;5.45;;;;;;;;;;5099902;28;20052;-65
2023/12/04 12:01:11;;;;;;;8.70;4.38;;;;;;;;;;5099908;28;20075;-66
2023/12/04 12:03:39;;;;;;;8.30;3.90;;;;;;;;;;5102596;28;20050;-66
2023/12/04 12:06:07;;;;;;;8.60;4.32;;;;;;;;;;5096496;28;20767;-65
2023/12/04 12:08:35;;;;;;;10.10;4.55;;;;;;;;;;5096719;28;20051;-66
2023/12/04 12:11:03;;;;;;;8.43;4.35;;;;;;;;;;5101631;28;20048;-66
2023/12/04 12:13:30;;;;;;;8.25;4.07;;;;;;;;;;5106367;28;20507;-66
2023/12/04 12:15:58;;;;;;;9.60;4.20;;;;;;;;;;5102069;28;20138;-66
2023/12/04 12:18:25;;;;;;;7.70;4.10;;;;;;;;;;5105908;28;20056;-66
2023/12/04 12:20:53;;;;;;;9.95;4.68;;;;;;;;;;5096370;28;20110;-66
2023/12/04 12:23:20;;;;;;;9.68;4.88;;;;;;;;;;5102026;28;20494;-66
2023/12/04 12:25:49;;;;;;;8.00;4.10;;;;;;;;;;5101145;28;20051;-66
2023/12/04 12:28:17;;;;;;;9.73;4.30;;;;;;;;;;5105174;28;20112;-66
2023/12/04 12:30:45;;;;;;;9.55;4.50;;;;;;;;;;5104241;28;20048;-66
2023/12/04 12:33:14;;;;;;;9.90;4.30;;;;;;;;;;5098321;28;20127;-66
2023/12/04 12:35:51;;;;;;;10.70;4.15;;;;;;;;;;5099219;28;20445;-66
2023/12/04 12:38:18;;;;;;;8.38;4.22;;;;;;;;;;5077184;28;20062;-66
2023/12/04 12:40:45;;;;;;;8.93;4.25;;;;;;;;;;5096662;28;20116;-67
2023/12/04 12:43:14;;;;;;;8.10;4.40;;;;;;;;;;5107107;28;20040;-65
2023/12/04 12:45:41;;;;;;;10.15;4.43;;;;;;;;;;5098707;28;20047;-67
2023/12/04 12:48:12;;;;;;;10.65;4.88;;;;;;;;;;5100771;28;20062;-65
2023/12/04 12:50:39;;;;;;;11.13;4.70;;;;;;;;;;5099572;28;20051;-65
2023/12/04 12:53:06;;;;;;;8.15;4.43;;;;;;;;;;5107874;28;20048;-66
2023/12/04 12:55:35;;;;;;;9.85;4.50;;;;;;;;;;5098992;28;20051;-65
2023/12/04 12:58:02;;;;;;;8.98;4.50;;;;;;;;;;5102155;28;20051;-65
2023/12/04 13:00:31;;;;;;;9.48;4.50;;;;;;;;;;5101331;28;20070;-66
2023/12/04 13:02:58;;;;;;;9.57;4.32;;;;;;;;;;5107161;28;20056;-66
2023/12/04 13:05:25;;;;;;;9.02;4.30;;;;;;;;;;5104609;28;20046;-65
2023/12/04 13:07:52;;;;;;;12.15;5.30;;;;;;;;;;5109911;28;20482;-65
2023/12/04 13:10:20;;;;;;;11.68;5.28;;;;;;;;;;5088686;28;20056;-66
2023/12/04 13:12:47;;;;;;;13.25;5.25;;;;;;;;;;5105152;28;20047;-65
2023/12/04 13:15:14;;;;;;;9.55;4.22;;;;;;;;;;5108254;28;20054;-65
2023/12/04 13:17:43;;;;;;;10.60;4.65;;;;;;;;;;5109294;28;20055;-65
2023/12/04 13:20:13;;;;;;;10.57;4.00;;;;;;;;;;5099119;28;20167;-66
2023/12/04 13:22:40;;;;;;;11.10;4.20;;;;;;;;;;5092991;28;20430;-66
2023/12/04 13:25:09;;;;;;;9.48;4.30;;;;;;;;;;5103002;28;20047;-66
2023/12/04 13:27:38;;;;;;;8.82;4.20;;;;;;;;;;5109056;28;20088;-66
2023/12/04 13:30:06;;;;;;;11.82;4.38;;;;;;;;;;5106696;28;20039;-66
2023/12/04 13:32:34;;;;;;;7.82;3.92;;;;;;;;;;5100754;28;20580;-65
2023/12/04 13:35:04;;;;;;;9.50;4.38;;;;;;;;;;5108730;28;20040;-66
2023/12/04 13:37:31;;;;;;;9.20;3.95;;;;;;;;;;5092867;28;20054;-65
2023/12/04 13:40:03;;;;;;;8.50;3.95;;;;;;;;;;5099525;28;20048;-66
2023/12/04 13:45:16;;;;;;;8.82;3.83;;;;;;;;;;5106847;28;20063;-66
2023/12/04 13:47:43;;;;;;;9.52;4.22;;;;;;;;;;5109361;28;20073;-66
2023/12/04 13:50:12;;;;;;;9.35;4.03;;;;;;;;;;5103926;28;20143;-66
2023/12/04 13:52:41;;;;;;;9.27;4.00;;;;;;;;;;5099912;28;20047;-66
2023/12/04 13:55:15;;;;;;;7.25;3.63;;;;;;;;;;5103545;28;20044;-66
2023/12/04 13:57:56;;;;;;;;;;;;;;;;;;5099034;28;20122;-66
2023/12/04 14:00:23;;;;;;;7.15;3.55;;;;;;;;;;5099222;28;19996;-66
2023/12/04 14:02:53;;;;;;;6.28;3.75;;;;;;;;;;5102211;28;20043;-65
2023/12/04 14:05:21;;;;;;;8.10;4.25;;;;;;;;;;5099595;28;20142;-65
2023/12/04 14:07:49;;;;;;;8.63;4.38;;;;;;;;;;5096470;28;20051;-66
2023/12/04 14:10:16;;;;;;;10.27;4.15;;;;;;;;;;5099959;28;20047;-65
2023/12/04 14:12:44;;;;;;;7.47;3.90;;;;;;;;;;5101554;28;20043;-65
2023/12/04 14:15:11;;;;;;;8.98;4.30;;;;;;;;;;5083715;28;20916;-65
2023/12/04 14:17:39;;;;;;;8.50;4.50;;;;;;;;;;5098278;28;20060;-66
2023/12/04 14:20:12;;;;;;;17.52;6.40;;;;;;;;;;5095751;28;20709;-66
2023/12/04 14:22:42;;;;;;;20.50;7.22;;;;;;;;;;5099588;28;20483;-65
2023/12/04 14:25:12;;;;;;;15.43;5.82;;;;;;;;;;5103980;28;20062;-66
2023/12/04 14:27:42;;;;;;;12.88;5.50;;;;;;;;;;5101355;28;20471;-66
2023/12/04 14:30:10;;;;;;;15.98;5.57;;;;;;;;;;5093757;28;20052;-66
2023/12/04 14:32:37;;;;;;;9.85;4.70;;;;;;;;;;5094503;28;20059;-66